KMSP/MSP METAR and TAF weather

Enter ICAO airport designator
Station Type Date Time Source
KMSP METAR 2018/12/13 22:53 UTC NOAA

KMSP 132253Z 27003KT 6SM BR BKN014 OVC021 M01/M03 A3010 RMK AO2 SLP206 T10061028


Station Type Date Time Source
KMSP Decoded METAR 2018/12/13 22:53 UTC NOAA

MINNEAPOLIS-ST PAUL INTERNATIONAL , MN, United States (KMSP) 44-52N 93-13W 265M
Dec 13, 2018 - 05:53 PM EST / 2018.12.13 2253 UTC
Wind: from the W (270 degrees) at 3 MPH (3 KT):0
Visibility: 6 mile(s):0
Sky conditions: overcast
Weather: mist
Temperature: 30.9 F (-0.6 C)
Dew Point: 27.0 F (-2.8 C)
Relative Humidity: 85%
Pressure (altimeter): 30.1 in. Hg (1019 hPa)
ob: KMSP 132253Z 27003KT 6SM BR BKN014 OVC021 M01/M03 A3010 RMK AO2 SLP206 T10061028
cycle: 23

Station Type Date Time Source
KMSP TAF 2018/12/13 21:51 UTC NOAA

TAF
AMD KMSP 132048Z 1321/1424 24005KT P6SM BKN013 OVC050
TEMPO 1321/1323 5SM BR OVC009
FM132300 27007KT P6SM BKN013
FM140100 27004KT P6SM SKC
FM140800 21003KT 3SM BR FEW250
FM141500 23007KT P6SM SKC


Example: see airport list